Impacts METAR Board
IDs:

KBBD - Brady/Curtis Fld, TX, US

Updated at: 0100 UTC 06 Dec 2019
Potential Impact None Slight Moderate High
Time 05/13Z 05/14Z 05/15Z 05/16Z 05/17Z 05/18Z 05/19Z 05/20Z 05/21Z 05/22Z 05/23Z 06/00Z 06/01Z
Temp52 52 55 66 72 75 79 82 82 82 79 73 70
Dewpt37 37 39 39 37 37 37 36 37 37 39 39 39
Altim29.99 29.99 30.00 30.01 30.01 29.98 29.93 29.90 29.88 29.88 29.89 29.91 29.93
VIS10 10 10 10 10 10 10 10 10 10 10 10 10
CIG-- -- -- -- -- -- -- -- -- -- -- -- --
CoverCLRCLRCLRCLRCLRCLRCLRCLRCLRCLRCLRCLRCLR
FltCatVFRVFRVFRVFRVFRVFRVFRVFRVFRVFRVFRVFRVFR
WX--------------------------
WDir170170220230240230240230270240270230220
WSpd6 4 6 13 11 9 10 11 14 12 9 7 6
WGst-- -- -- -- -- -- 15 -- -- -- 15 -- --
Raw hourly METARs
KBBD 051255Z AUTO 17006KT 10SM CLR 11/03 A2999 RMK AO2
KBBD 051355Z AUTO 17004KT 10SM CLR 11/03 A2999 RMK AO2
KBBD 051455Z AUTO 22006KT 10SM CLR 13/04 A3000 RMK AO2
KBBD 051555Z AUTO 23013KT 10SM CLR 19/04 A3001 RMK AO2
KBBD 051655Z AUTO 24011KT 10SM CLR 22/03 A3001 RMK AO2
KBBD 051755Z AUTO 23009KT 10SM CLR 24/03 A2998 RMK AO2
KBBD 051855Z AUTO 24010G15KT 10SM CLR 26/03 A2993 RMK AO2
KBBD 051955Z AUTO 23011KT 10SM CLR 28/02 A2990 RMK AO2
KBBD 052055Z AUTO 27014KT 10SM CLR 28/03 A2988 RMK AO2
KBBD 052155Z AUTO 24012KT 10SM CLR 28/03 A2988 RMK AO2
KBBD 052255Z AUTO 27009G15KT 10SM CLR 26/04 A2989 RMK AO2
KBBD 052355Z AUTO 23007KT 10SM CLR 23/04 A2991 RMK AO2
KBBD 060055Z AUTO 22006KT 10SM CLR 21/04 A2993 RMK AO2



Page loaded:  01:06 UTC  |   05:06 PM Pacific  |   06:06 PM Mountain  |   07:06 PM Central  |   08:06 PM Eastern

 

ADVISORIES

FORECASTS

FORECASTS

OBSERVATIONS

USER TOOLS

ABOUT US